sensor_id;sensor_type;location;lat;lon;timestamp;pressure;altitude;pressure_sealevel;temperature;humidity
68075;BME280;54864;52.002;5.468;2023-08-01T00:00:07;99726.81;;;18.73;90.68
68075;BME280;54864;52.002;5.468;2023-08-01T00:01:29;99722.53;;;18.62;91.28
68075;BME280;54864;52.002;5.468;2023-08-01T00:02:30;99711.41;;;18.67;90.98
68075;BME280;54864;52.002;5.468;2023-08-01T00:03:41;99710.97;;;18.72;90.62
68075;BME280;54864;52.002;5.468;2023-08-01T00:05:00;99711.41;;;18.67;91.23
68075;BME280;54864;52.002;5.468;2023-08-01T00:06:05;99710.84;;;18.63;91.47
68075;BME280;54864;52.002;5.468;2023-08-01T00:07:25;99709.72;;;18.66;91.07
68075;BME280;54864;52.002;5.468;2023-08-01T00:08:43;99719.50;;;18.75;90.35
68075;BME280;54864;52.002;5.468;2023-08-01T00:10:02;99721.03;;;18.78;90.40
68075;BME280;54864;52.002;5.468;2023-08-01T00:11:23;99721.34;;;18.75;90.75
68075;BME280;54864;52.002;5.468;2023-08-01T00:12:24;99717.13;;;18.72;90.95
68075;BME280;54864;52.002;5.468;2023-08-01T00:13:26;99712.94;;;18.69;90.91
68075;BME280;54864;52.002;5.468;2023-08-01T00:14:26;99720.94;;;18.69;90.91
68075;BME280;54864;52.002;5.468;2023-08-01T00:15:47;99717.84;;;18.74;90.87
68075;BME280;54864;52.002;5.468;2023-08-01T00:17:08;99715.31;;;18.73;90.91
68075;BME280;54864;52.002;5.468;2023-08-01T00:18:13;99714.31;;;18.74;90.51
68075;BME280;54864;52.002;5.468;2023-08-01T00:19:14;99711.50;;;18.75;90.25
68075;BME280;54864;52.002;5.468;2023-08-01T00:20:34;99700.28;;;18.72;90.08
68075;BME280;54864;52.002;5.468;2023-08-01T00:21:54;99704.47;;;18.74;89.88
68075;BME280;54864;52.002;5.468;2023-08-01T00:22:55;99711.66;;;18.74;89.97
68075;BME280;54864;52.002;5.468;2023-08-01T00:23:59;99710.13;;;18.71;90.20
68075;BME280;54864;52.002;5.468;2023-08-01T00:25:04;99711.09;;;18.70;90.40
68075;BME280;54864;52.002;5.468;2023-08-01T00:26:11;99699.44;;;18.71;90.57
68075;BME280;54864;52.002;5.468;2023-08-01T00:27:12;99700.97;;;18.74;90.80
68075;BME280;54864;52.002;5.468;2023-08-01T00:28:16;99700.44;;;18.70;91.18
68075;BME280;54864;52.002;5.468;2023-08-01T00:29:18;99692.13;;;18.73;90.93
68075;BME280;54864;52.002;5.468;2023-08-01T00:30:19;99685.09;;;18.72;90.86
68075;BME280;54864;52.002;5.468;2023-08-01T00:31:21;99685.47;;;18.77;90.62
68075;BME280;54864;52.002;5.468;2023-08-01T00:32:23;99690.69;;;18.79;90.31
68075;BME280;54864;52.002;5.468;2023-08-01T00:33:25;99691.59;;;18.60;90.03
68075;BME280;54864;52.002;5.468;2023-08-01T00:34:26;99697.06;;;18.68;90.31
68075;BME280;54864;52.002;5.468;2023-08-01T00:35:41;99694.09;;;18.71;90.23
68075;BME280;54864;52.002;5.468;2023-08-01T00:36:43;99685.69;;;18.66;91.20
68075;BME280;54864;52.002;5.468;2023-08-01T00:38:02;99683.34;;;18.53;90.93
68075;BME280;54864;52.002;5.468;2023-08-01T00:39:22;99680.53;;;18.55;90.95
68075;BME280;54864;52.002;5.468;2023-08-01T00:40:41;99679.09;;;18.60;91.20
68075;BME280;54864;52.002;5.468;2023-08-01T00:41:45;99674.50;;;18.53;91.74
68075;BME280;54864;52.002;5.468;2023-08-01T00:43:04;99675.19;;;18.55;91.42
68075;BME280;54864;52.002;5.468;2023-08-01T00:44:06;99674.88;;;18.30;92.45
68075;BME280;54864;52.002;5.468;2023-08-01T00:45:08;99667.97;;;18.37;93.12
68075;BME280;54864;52.002;5.468;2023-08-01T00:46:10;99669.25;;;18.33;92.90
68075;BME280;54864;52.002;5.468;2023-08-01T00:47:33;99676.53;;;18.41;92.64
68075;BME280;54864;52.002;5.468;2023-08-01T00:48:53;99677.59;;;18.48;92.81
68075;BME280;54864;52.002;5.468;2023-08-01T00:49:58;99675.94;;;18.47;92.98
68075;BME280;54864;52.002;5.468;2023-08-01T00:51:18;99671.13;;;18.51;92.93
68075;BME280;54864;52.002;5.468;2023-08-01T00:52:19;99672.81;;;18.52;93.01
68075;BME280;54864;52.002;5.468;2023-08-01T00:53:21;99668.84;;;18.56;92.70
68075;BME280;54864;52.002;5.468;2023-08-01T00:54:22;99657.88;;;18.59;92.51
68075;BME280;54864;52.002;5.468;2023-08-01T00:55:43;99663.78;;;18.62;92.09
68075;BME280;54864;52.002;5.468;2023-08-01T00:57:03;99654.78;;;18.63;91.56
68075;BME280;54864;52.002;5.468;2023-08-01T00:58:05;99657.47;;;18.63;91.46
68075;BME280;54864;52.002;5.468;2023-08-01T00:59:24;99655.06;;;18.60;90.63
68075;BME280;54864;52.002;5.468;2023-08-01T01:00:25;99649.34;;;18.55;90.74
68075;BME280;54864;52.002;5.468;2023-08-01T01:01:27;99647.78;;;18.62;89.95
68075;BME280;54864;52.002;5.468;2023-08-01T01:02:28;99652.13;;;18.63;89.40
68075;BME280;54864;52.002;5.468;2023-08-01T01:03:32;99654.09;;;18.61;89.41
68075;BME280;54864;52.002;5.468;2023-08-01T01:04:51;99645.22;;;18.61;89.20
68075;BME280;54864;52.002;5.468;2023-08-01T01:06:14;99645.53;;;18.58;88.94
68075;BME280;54864;52.002;5.468;2023-08-01T01:07:36;99648.25;;;18.48;89.22
68075;BME280;54864;52.002;5.468;2023-08-01T01:08:38;99640.25;;;18.48;89.00
68075;BME280;54864;52.002;5.468;2023-08-01T01:09:55;99647.09;;;18.51;88.66
68075;BME280;54864;52.002;5.468;2023-08-01T01:10:56;99648.09;;;18.50;88.52
68075;BME280;54864;52.002;5.468;2023-08-01T01:12:16;99644.88;;;18.46;88.48
68075;BME280;54864;52.002;5.468;2023-08-01T01:13:18;99647.72;;;18.45;88.15
68075;BME280;54864;52.002;5.468;2023-08-01T01:14:18;99641.97;;;18.40;88.20
68075;BME280;54864;52.002;5.468;2023-08-01T01:15:19;99647.06;;;18.33;88.26
68075;BME280;54864;52.002;5.468;2023-08-01T01:16:39;99638.91;;;18.34;88.19
68075;BME280;54864;52.002;5.468;2023-08-01T01:17:59;99646.06;;;18.34;88.06
68075;BME280;54864;52.002;5.468;2023-08-01T01:19:06;99642.03;;;18.30;88.45
68075;BME280;54864;52.002;5.468;2023-08-01T01:20:08;99640.34;;;18.29;88.30
68075;BME280;54864;52.002;5.468;2023-08-01T01:21:16;99641.31;;;18.28;87.98
68075;BME280;54864;52.002;5.468;2023-08-01T01:22:18;99645.44;;;18.22;87.78
68075;BME280;54864;52.002;5.468;2023-08-01T01:23:21;99646.13;;;18.24;87.32
68075;BME280;54864;52.002;5.468;2023-08-01T01:24:22;99649.19;;;18.20;87.13
68075;BME280;54864;52.002;5.468;2023-08-01T01:25:25;99643.75;;;18.12;87.97
68075;BME280;54864;52.002;5.468;2023-08-01T01:26:27;99650.91;;;18.11;87.74
68075;BME280;54864;52.002;5.468;2023-08-01T01:27:29;99652.91;;;18.09;87.98
68075;BME280;54864;52.002;5.468;2023-08-01T01:28:50;99653.03;;;18.08;87.83
68075;BME280;54864;52.002;5.468;2023-08-01T01:29:53;99657.81;;;18.04;87.92
68075;BME280;54864;52.002;5.468;2023-08-01T01:31:14;99649.28;;;18.00;87.59
68075;BME280;54864;52.002;5.468;2023-08-01T01:32:28;99655.16;;;18.04;87.62
68075;BME280;54864;52.002;5.468;2023-08-01T01:33:34;99648.31;;;17.92;88.58
68075;BME280;54864;52.002;5.468;2023-08-01T01:34:44;99652.56;;;17.85;88.98
68075;BME280;54864;52.002;5.468;2023-08-01T01:35:45;99647.91;;;17.87;88.80
68075;BME280;54864;52.002;5.468;2023-08-01T01:37:06;99662.66;;;17.81;88.95
68075;BME280;54864;52.002;5.468;2023-08-01T01:38:08;99656.78;;;17.78;89.45
68075;BME280;54864;52.002;5.468;2023-08-01T01:39:27;99655.94;;;17.77;89.17
68075;BME280;54864;52.002;5.468;2023-08-01T01:40:28;99657.91;;;17.75;89.23
68075;BME280;54864;52.002;5.468;2023-08-01T01:41:49;99659.03;;;17.72;89.74
68075;BME280;54864;52.002;5.468;2023-08-01T01:42:50;99648.94;;;17.66;89.91
68075;BME280;54864;52.002;5.468;2023-08-01T01:43:57;99656.19;;;17.55;91.13
68075;BME280;54864;52.002;5.468;2023-08-01T01:45:17;99655.81;;;17.59;90.97
68075;BME280;54864;52.002;5.468;2023-08-01T01:46:19;99646.53;;;17.54;91.32
68075;BME280;54864;52.002;5.468;2023-08-01T01:47:32;99655.50;;;17.53;91.45
68075;BME280;54864;52.002;5.468;2023-08-01T01:48:46;99652.84;;;17.43;92.32
68075;BME280;54864;52.002;5.468;2023-08-01T01:49:46;99655.94;;;17.38;93.39
68075;BME280;54864;52.002;5.468;2023-08-01T01:50:53;99657.19;;;17.44;93.11
68075;BME280;54864;52.002;5.468;2023-08-01T01:51:56;99653.13;;;17.50;92.84
68075;BME280;54864;52.002;5.468;2023-08-01T01:52:59;99650.88;;;17.45;92.89
68075;BME280;54864;52.002;5.468;2023-08-01T01:54:00;99651.03;;;17.43;93.26
68075;BME280;54864;52.002;5.468;2023-08-01T01:55:05;99643.47;;;17.39;93.64
68075;BME280;54864;52.002;5.468;2023-08-01T01:56:07;99645.00;;;17.41;93.53
68075;BME280;54864;52.002;5.468;2023-08-01T01:57:12;99649.91;;;17.46;93.50
68075;BME280;54864;52.002;5.468;2023-08-01T01:58:13;99649.06;;;17.46;93.42
68075;BME280;54864;52.002;5.468;2023-08-01T01:59:14;99646.41;;;17.46;94.23
68075;BME280;54864;52.002;5.468;2023-08-01T02:00:16;99641.91;;;17.46;94.14
68075;BME280;54864;52.002;5.468;2023-08-01T02:01:18;99639.81;;;17.50;93.92
68075;BME280;54864;52.002;5.468;2023-08-01T02:02:37;99638.97;;;17.49;93.52
68075;BME280;54864;52.002;5.468;2023-08-01T02:03:58;99642.31;;;17.51;93.11
68075;BME280;54864;52.002;5.468;2023-08-01T02:04:58;99640.09;;;17.47;93.33
68075;BME280;54864;52.002;5.468;2023-08-01T02:06:19;99644.28;;;17.49;93.81
68075;BME280;54864;52.002;5.468;2023-08-01T02:07:20;99647.09;;;17.48;94.04
68075;BME280;54864;52.002;5.468;2023-08-01T02:08:23;99648.78;;;17.49;93.49
68075;BME280;54864;52.002;5.468;2023-08-01T02:09:24;99638.13;;;17.49;93.09
68075;BME280;54864;52.002;5.468;2023-08-01T02:10:26;99640.50;;;17.52;92.78
68075;BME280;54864;52.002;5.468;2023-08-01T02:11:26;99636.59;;;17.46;92.43
68075;BME280;54864;52.002;5.468;2023-08-01T02:12:46;99642.91;;;17.45;92.53
68075;BME280;54864;52.002;5.468;2023-08-01T02:14:05;99633.91;;;17.46;92.63
68075;BME280;54864;52.002;5.468;2023-08-01T02:15:13;99635.47;;;17.39;93.29
68075;BME280;54864;52.002;5.468;2023-08-01T02:16:33;99640.09;;;17.37;93.69
68075;BME280;54864;52.002;5.468;2023-08-01T02:17:53;99639.81;;;17.40;93.42
68075;BME280;54864;52.002;5.468;2023-08-01T02:19:13;99635.59;;;17.37;93.33
68075;BME280;54864;52.002;5.468;2023-08-01T02:20:15;99632.66;;;17.40;93.00
68075;BME280;54864;52.002;5.468;2023-08-01T02:21:28;99631.41;;;17.35;93.84
68075;BME280;54864;52.002;5.468;2023-08-01T02:22:30;99630.44;;;17.26;95.38
68075;BME280;54864;52.002;5.468;2023-08-01T02:23:51;99632.53;;;17.32;95.41
68075;BME280;54864;52.002;5.468;2023-08-01T02:25:05;99619.34;;;17.31;nan
68075;BME280;54864;52.002;5.468;2023-08-01T02:26:06;99627.63;;;17.37;94.27
68075;BME280;54864;52.002;5.468;2023-08-01T02:27:17;99630.28;;;17.37;94.38
68075;BME280;54864;52.002;5.468;2023-08-01T02:28:19;99620.88;;;17.33;94.95
68075;BME280;54864;52.002;5.468;2023-08-01T02:29:20;99624.25;;;17.35;nan
68075;BME280;54864;52.002;5.468;2023-08-01T02:30:22;99617.81;;;17.38;95.19
68075;BME280;54864;52.002;5.468;2023-08-01T02:31:23;99623.97;;;17.38;95.29
68075;BME280;54864;52.002;5.468;2023-08-01T02:32:24;99627.34;;;17.40;95.66
68075;BME280;54864;52.002;5.468;2023-08-01T02:33:44;99627.88;;;17.44;95.23
68075;BME280;54864;52.002;5.468;2023-08-01T02:35:04;99623.97;;;17.38;95.98
68075;BME280;54864;52.002;5.468;2023-08-01T02:36:06;99625.38;;;17.42;96.01
68075;BME280;54864;52.002;5.468;2023-08-01T02:37:25;99629.97;;;17.50;96.02
68075;BME280;54864;52.002;5.468;2023-08-01T02:38:27;99622.97;;;17.49;96.31
68075;BME280;54864;52.002;5.468;2023-08-01T02:39:48;99629.00;;;17.51;96.82
68075;BME280;54864;52.002;5.468;2023-08-01T02:40:56;99630.53;;;17.54;96.62
68075;BME280;54864;52.002;5.468;2023-08-01T02:41:56;99622.41;;;17.55;96.64
68075;BME280;54864;52.002;5.468;2023-08-01T02:43:17;99624.13;;;17.56;96.85
68075;BME280;54864;52.002;5.468;2023-08-01T02:44:23;99634.19;;;17.62;96.97
68075;BME280;54864;52.002;5.468;2023-08-01T02:45:43;99635.03;;;17.63;97.37
68075;BME280;54864;52.002;5.468;2023-08-01T02:46:47;99628.16;;;17.60;97.53
68075;BME280;54864;52.002;5.468;2023-08-01T02:47:48;99631.25;;;17.65;97.56
68075;BME280;54864;52.002;5.468;2023-08-01T02:48:49;99634.22;;;17.72;97.27
68075;BME280;54864;52.002;5.468;2023-08-01T02:49:51;99631.09;;;17.77;96.73
68075;BME280;54864;52.002;5.468;2023-08-01T02:50:52;99630.69;;;17.71;97.25
68075;BME280;54864;52.002;5.468;2023-08-01T02:51:53;99633.66;;;17.68;97.61
68075;BME280;54864;52.002;5.468;2023-08-01T02:52:55;99639.38;;;17.64;97.63
68075;BME280;54864;52.002;5.468;2023-08-01T02:54:14;99635.34;;;17.69;97.94
68075;BME280;54864;52.002;5.468;2023-08-01T02:55:18;99635.88;;;17.73;98.03
68075;BME280;54864;52.002;5.468;2023-08-01T02:56:30;99631.94;;;17.77;97.50
68075;BME280;54864;52.002;5.468;2023-08-01T02:57:51;99629.53;;;17.84;97.13
68075;BME280;54864;52.002;5.468;2023-08-01T02:58:57;99629.00;;;17.80;97.15
68075;BME280;54864;52.002;5.468;2023-08-01T03:00:06;99629.69;;;17.82;96.74
68075;BME280;54864;52.002;5.468;2023-08-01T03:01:12;99627.56;;;17.86;96.30
68075;BME280;54864;52.002;5.468;2023-08-01T03:02:32;99627.75;;;17.74;96.57
68075;BME280;54864;52.002;5.468;2023-08-01T03:03:51;99631.66;;;17.80;97.18
68075;BME280;54864;52.002;5.468;2023-08-01T03:05:12;99629.84;;;17.81;96.87
68075;BME280;54864;52.002;5.468;2023-08-01T03:06:15;99634.47;;;17.79;97.55
68075;BME280;54864;52.002;5.468;2023-08-01T03:07:18;99631.22;;;17.85;97.39
68075;BME280;54864;52.002;5.468;2023-08-01T03:08:37;99627.88;;;17.83;97.79
68075;BME280;54864;52.002;5.468;2023-08-01T03:09:59;99627.31;;;17.79;98.37
68075;BME280;54864;52.002;5.468;2023-08-01T03:11:04;99628.84;;;17.82;98.51
68075;BME280;54864;52.002;5.468;2023-08-01T03:12:25;99632.22;;;17.84;98.40
68075;BME280;54864;52.002;5.468;2023-08-01T03:13:35;99629.66;;;17.92;97.92
68075;BME280;54864;52.002;5.468;2023-08-01T03:14:55;99627.97;;;17.91;97.84
68075;BME280;54864;52.002;5.468;2023-08-01T03:15:56;99621.25;;;17.87;97.69
68075;BME280;54864;52.002;5.468;2023-08-01T03:17:16;99631.81;;;17.79;98.25
68075;BME280;54864;52.002;5.468;2023-08-01T03:18:17;99623.94;;;17.77;98.31
68075;BME280;54864;52.002;5.468;2023-08-01T03:19:21;99632.06;;;17.85;98.38
68075;BME280;54864;52.002;5.468;2023-08-01T03:20:22;99625.59;;;17.88;97.89
68075;BME280;54864;52.002;5.468;2023-08-01T03:21:24;99627.28;;;17.89;97.40
68075;BME280;54864;52.002;5.468;2023-08-01T03:22:26;99619.69;;;17.94;96.71
68075;BME280;54864;52.002;5.468;2023-08-01T03:23:47;99621.22;;;17.96;95.96
68075;BME280;54864;52.002;5.468;2023-08-01T03:25:07;99626.69;;;17.95;95.88
68075;BME280;54864;52.002;5.468;2023-08-01T03:26:11;99621.28;;;17.77;96.30
68075;BME280;54864;52.002;5.468;2023-08-01T03:27:30;99620.72;;;17.73;97.51
68075;BME280;54864;52.002;5.468;2023-08-01T03:28:44;99622.13;;;17.78;98.01
68075;BME280;54864;52.002;5.468;2023-08-01T03:30:00;99632.78;;;17.78;98.33
68075;BME280;54864;52.002;5.468;2023-08-01T03:31:04;99632.66;;;17.79;97.68
68075;BME280;54864;52.002;5.468;2023-08-01T03:32:17;99637.28;;;17.77;97.93
68075;BME280;54864;52.002;5.468;2023-08-01T03:33:38;99636.44;;;17.77;97.95
68075;BME280;54864;52.002;5.468;2023-08-01T03:34:53;99638.16;;;17.68;98.53
68075;BME280;54864;52.002;5.468;2023-08-01T03:36:14;99635.59;;;17.76;98.28
68075;BME280;54864;52.002;5.468;2023-08-01T03:37:17;99633.91;;;17.65;98.15
68075;BME280;54864;52.002;5.468;2023-08-01T03:38:19;99624.25;;;17.74;98.16
68075;BME280;54864;52.002;5.468;2023-08-01T03:39:20;99634.63;;;17.77;98.00
68075;BME280;54864;52.002;5.468;2023-08-01T03:40:24;99636.19;;;17.70;98.55
68075;BME280;54864;52.002;5.468;2023-08-01T03:41:27;99632.81;;;17.68;98.47
68075;BME280;54864;52.002;5.468;2023-08-01T03:42:28;99640.94;;;17.76;98.71
68075;BME280;54864;52.002;5.468;2023-08-01T03:43:29;99633.47;;;17.80;98.32
68075;BME280;54864;52.002;5.468;2023-08-01T03:44:40;99630.13;;;17.78;98.54
68075;BME280;54864;52.002;5.468;2023-08-01T03:45:42;99621.69;;;17.82;98.08
68075;BME280;54864;52.002;5.468;2023-08-01T03:46:43;99624.91;;;17.86;97.05
68075;BME280;54864;52.002;5.468;2023-08-01T03:47:44;99629.13;;;17.79;97.42
68075;BME280;54864;52.002;5.468;2023-08-01T03:48:45;99630.81;;;17.80;97.19
68075;BME280;54864;52.002;5.468;2023-08-01T03:49:46;99634.63;;;17.77;97.12
68075;BME280;54864;52.002;5.468;2023-08-01T03:50:48;99635.59;;;17.76;97.91
68075;BME280;54864;52.002;5.468;2023-08-01T03:52:08;99635.16;;;17.81;97.62
68075;BME280;54864;52.002;5.468;2023-08-01T03:53:09;99638.94;;;17.88;96.92
68075;BME280;54864;52.002;5.468;2023-08-01T03:54:29;99637.94;;;17.89;96.51
68075;BME280;54864;52.002;5.468;2023-08-01T03:55:49;99645.25;;;17.87;96.13
68075;BME280;54864;52.002;5.468;2023-08-01T03:57:11;99636.00;;;17.81;96.49
68075;BME280;54864;52.002;5.468;2023-08-01T03:58:30;99635.16;;;17.81;96.72
68075;BME280;54864;52.002;5.468;2023-08-01T03:59:51;99634.19;;;17.82;96.45
68075;BME280;54864;52.002;5.468;2023-08-01T04:00:51;99637.44;;;17.76;97.60
68075;BME280;54864;52.002;5.468;2023-08-01T04:02:12;99642.19;;;17.82;97.17
68075;BME280;54864;52.002;5.468;2023-08-01T04:03:32;99633.34;;;17.81;97.13
68075;BME280;54864;52.002;5.468;2023-08-01T04:04:42;99641.34;;;17.81;97.43
68075;BME280;54864;52.002;5.468;2023-08-01T04:05:43;99642.31;;;17.80;97.21
68075;BME280;54864;52.002;5.468;2023-08-01T04:06:45;99642.31;;;17.80;97.51
68075;BME280;54864;52.002;5.468;2023-08-01T04:07:46;99643.88;;;17.73;98.44
68075;BME280;54864;52.002;5.468;2023-08-01T04:09:06;99637.00;;;17.80;98.36
68075;BME280;54864;52.002;5.468;2023-08-01T04:10:08;99635.72;;;17.84;98.52
68075;BME280;54864;52.002;5.468;2023-08-01T04:11:12;99641.47;;;17.80;97.96
68075;BME280;54864;52.002;5.468;2023-08-01T04:12:15;99641.19;;;17.83;97.98
68075;BME280;54864;52.002;5.468;2023-08-01T04:13:35;99645.69;;;17.63;98.54
68075;BME280;54864;52.002;5.468;2023-08-01T04:14:55;99642.50;;;17.69;98.89
68075;BME280;54864;52.002;5.468;2023-08-01T04:15:59;99647.78;;;17.79;98.50
68075;BME280;54864;52.002;5.468;2023-08-01T04:17:19;99647.66;;;17.80;98.41
68075;BME280;54864;52.002;5.468;2023-08-01T04:18:21;99650.91;;;17.74;98.17
68075;BME280;54864;52.002;5.468;2023-08-01T04:19:41;99649.63;;;17.78;98.76
68075;BME280;54864;52.002;5.468;2023-08-01T04:20:46;99651.72;;;17.84;97.91
68075;BME280;54864;52.002;5.468;2023-08-01T04:22:05;99651.00;;;17.82;97.81
68075;BME280;54864;52.002;5.468;2023-08-01T04:23:26;99647.38;;;17.83;97.61
68075;BME280;54864;52.002;5.468;2023-08-01T04:24:27;99639.81;;;17.79;97.72
68075;BME280;54864;52.002;5.468;2023-08-01T04:25:33;99644.44;;;17.77;98.03
68075;BME280;54864;52.002;5.468;2023-08-01T04:26:40;99655.06;;;17.86;97.91
68075;BME280;54864;52.002;5.468;2023-08-01T04:27:49;99651.41;;;17.87;97.75
68075;BME280;54864;52.002;5.468;2023-08-01T04:28:50;99641.03;;;17.84;97.66
68075;BME280;54864;52.002;5.468;2023-08-01T04:29:52;99642.03;;;17.83;98.01
68075;BME280;54864;52.002;5.468;2023-08-01T04:30:53;99646.09;;;17.87;97.70
68075;BME280;54864;52.002;5.468;2023-08-01T04:32:13;99639.91;;;17.87;97.46
68075;BME280;54864;52.002;5.468;2023-08-01T04:33:15;99626.44;;;17.88;97.60
68075;BME280;54864;52.002;5.468;2023-08-01T04:34:36;99641.31;;;17.91;97.79
68075;BME280;54864;52.002;5.468;2023-08-01T04:35:43;99639.63;;;17.90;97.29
68075;BME280;54864;52.002;5.468;2023-08-01T04:36:53;99638.34;;;17.94;97.07
68075;BME280;54864;52.002;5.468;2023-08-01T04:38:12;99639.75;;;17.98;97.19
68075;BME280;54864;52.002;5.468;2023-08-01T04:39:14;99640.31;;;17.92;96.40
68075;BME280;54864;52.002;5.468;2023-08-01T04:40:30;99638.50;;;17.92;97.11
68075;BME280;54864;52.002;5.468;2023-08-01T04:41:50;99639.78;;;17.88;96.67
68075;BME280;54864;52.002;5.468;2023-08-01T04:43:11;99645.69;;;17.82;97.54
68075;BME280;54864;52.002;5.468;2023-08-01T04:44:13;99636.97;;;17.90;97.58
68075;BME280;54864;52.002;5.468;2023-08-01T04:45:25;99637.41;;;17.85;97.10
68075;BME280;54864;52.002;5.468;2023-08-01T04:46:47;99634.59;;;17.87;96.87
68075;BME280;54864;52.002;5.468;2023-08-01T04:48:07;99634.84;;;17.93;97.08
68075;BME280;54864;52.002;5.468;2023-08-01T04:49:24;99638.38;;;17.84;96.65
68075;BME280;54864;52.002;5.468;2023-08-01T04:50:25;99634.06;;;17.73;97.33
68075;BME280;54864;52.002;5.468;2023-08-01T04:51:27;99638.13;;;17.78;98.39
68075;BME280;54864;52.002;5.468;2023-08-01T04:52:46;99637.53;;;17.84;97.54
68075;BME280;54864;52.002;5.468;2023-08-01T04:54:08;99632.22;;;17.64;98.43
68075;BME280;54864;52.002;5.468;2023-08-01T04:55:15;99628.19;;;17.70;98.51
68075;BME280;54864;52.002;5.468;2023-08-01T04:56:35;99627.88;;;17.83;98.28
68075;BME280;54864;52.002;5.468;2023-08-01T04:57:42;99630.25;;;17.76;98.26
68075;BME280;54864;52.002;5.468;2023-08-01T04:59:04;99638.66;;;17.81;98.54
68075;BME280;54864;52.002;5.468;2023-08-01T05:00:06;99633.19;;;17.83;98.77
68075;BME280;54864;52.002;5.468;2023-08-01T05:01:26;99624.88;;;17.95;98.07
68075;BME280;54864;52.002;5.468;2023-08-01T05:02:27;99632.28;;;18.01;97.87
68075;BME280;54864;52.002;5.468;2023-08-01T05:03:47;99634.28;;;17.90;97.63
68075;BME280;54864;52.002;5.468;2023-08-01T05:04:54;99626.00;;;17.93;98.03
68075;BME280;54864;52.002;5.468;2023-08-01T05:06:02;99633.19;;;17.83;98.46
68075;BME280;54864;52.002;5.468;2023-08-01T05:07:21;99634.56;;;17.96;98.73
68075;BME280;54864;52.002;5.468;2023-08-01T05:08:23;99632.44;;;18.00;98.24
68075;BME280;54864;52.002;5.468;2023-08-01T05:09:23;99632.53;;;18.08;97.98
68075;BME280;54864;52.002;5.468;2023-08-01T05:10:25;99640.94;;;18.13;98.38
68075;BME280;54864;52.002;5.468;2023-08-01T05:11:44;99631.66;;;18.17;97.84
68075;BME280;54864;52.002;5.468;2023-08-01T05:13:05;99638.97;;;18.15;97.01
68075;BME280;54864;52.002;5.468;2023-08-01T05:14:13;99645.97;;;18.16;97.18
68075;BME280;54864;52.002;5.468;2023-08-01T05:15:34;99632.09;;;18.22;96.64
68075;BME280;54864;52.002;5.468;2023-08-01T05:16:53;99635.22;;;18.08;97.26
68075;BME280;54864;52.002;5.468;2023-08-01T05:18:15;99637.72;;;18.10;96.93
68075;BME280;54864;52.002;5.468;2023-08-01T05:19:15;99641.38;;;18.09;97.45
68075;BME280;54864;52.002;5.468;2023-08-01T05:20:36;99642.47;;;18.16;97.66
68075;BME280;54864;52.002;5.468;2023-08-01T05:21:55;99637.69;;;18.19;97.38
68075;BME280;54864;52.002;5.468;2023-08-01T05:22:57;99644.00;;;18.28;97.16
68075;BME280;54864;52.002;5.468;2023-08-01T05:24:00;99637.97;;;18.26;96.72
68075;BME280;54864;52.002;5.468;2023-08-01T05:25:02;99648.19;;;18.30;95.77
68075;BME280;54864;52.002;5.468;2023-08-01T05:26:04;99655.06;;;18.33;95.93
68075;BME280;54864;52.002;5.468;2023-08-01T05:27:07;99646.06;;;18.34;95.25
68075;BME280;54864;52.002;5.468;2023-08-01T05:28:11;99648.00;;;18.42;95.73
68075;BME280;54864;52.002;5.468;2023-08-01T05:29:25;99647.94;;;18.51;95.55
68075;BME280;54864;52.002;5.468;2023-08-01T05:30:29;99648.34;;;18.56;95.04
68075;BME280;54864;52.002;5.468;2023-08-01T05:31:30;99642.84;;;18.58;95.18
68075;BME280;54864;52.002;5.468;2023-08-01T05:32:54;99653.69;;;18.56;95.45
68075;BME280;54864;52.002;5.468;2023-08-01T05:33:56;99646.81;;;18.54;95.29
68075;BME280;54864;52.002;5.468;2023-08-01T05:34:57;99648.31;;;18.66;95.73
68075;BME280;54864;52.002;5.468;2023-08-01T05:36:01;99651.75;;;18.76;94.81
68075;BME280;54864;52.002;5.468;2023-08-01T05:37:02;99645.19;;;18.71;94.58
68075;BME280;54864;52.002;5.468;2023-08-01T05:38:04;99650.84;;;18.67;94.12
68075;BME280;54864;52.002;5.468;2023-08-01T05:39:04;99653.44;;;18.77;93.93
68075;BME280;54864;52.002;5.468;2023-08-01T05:40:09;99642.81;;;18.67;92.43
68075;BME280;54864;52.002;5.468;2023-08-01T05:41:10;99659.28;;;18.63;93.27
68075;BME280;54864;52.002;5.468;2023-08-01T05:42:17;99653.69;;;18.56;92.87
68075;BME280;54864;52.002;5.468;2023-08-01T05:43:21;99658.19;;;18.56;93.46
68075;BME280;54864;52.002;5.468;2023-08-01T05:44:34;99663.97;;;18.51;94.07
68075;BME280;54864;52.002;5.468;2023-08-01T05:45:34;99655.13;;;18.51;94.91
68075;BME280;54864;52.002;5.468;2023-08-01T05:46:36;99657.19;;;18.57;94.83
68075;BME280;54864;52.002;5.468;2023-08-01T05:47:37;99657.03;;;18.58;94.82
68075;BME280;54864;52.002;5.468;2023-08-01T05:48:41;99657.47;;;18.63;94.89
68075;BME280;54864;52.002;5.468;2023-08-01T05:49:42;99661.28;;;18.51;94.18
68075;BME280;54864;52.002;5.468;2023-08-01T05:50:44;99662.22;;;18.60;94.87
68075;BME280;54864;52.002;5.468;2023-08-01T05:51:44;99665.03;;;18.68;95.04
68075;BME280;54864;52.002;5.468;2023-08-01T05:52:46;99665.03;;;18.68;94.43
68075;BME280;54864;52.002;5.468;2023-08-01T05:53:47;99668.41;;;18.60;94.48
68075;BME280;54864;52.002;5.468;2023-08-01T05:54:49;99662.66;;;18.65;94.24
68075;BME280;54864;52.002;5.468;2023-08-01T05:55:50;99660.69;;;18.67;93.55
68075;BME280;54864;52.002;5.468;2023-08-01T05:56:55;99654.78;;;18.63;94.37
68075;BME280;54864;52.002;5.468;2023-08-01T05:57:56;99663.91;;;18.61;93.85
68075;BME280;54864;52.002;5.468;2023-08-01T05:58:58;99673.03;;;18.68;94.10
68075;BME280;54864;52.002;5.468;2023-08-01T06:00:01;99661.91;;;18.73;94.64
68075;BME280;54864;52.002;5.468;2023-08-01T06:01:03;99662.16;;;18.79;93.19
68075;BME280;54864;52.002;5.468;2023-08-01T06:02:05;99662.00;;;18.81;92.95
68075;BME280;54864;52.002;5.468;2023-08-01T06:03:07;99665.19;;;18.84;93.14
68075;BME280;54864;52.002;5.468;2023-08-01T06:04:08;99667.63;;;18.78;92.18